Time;durP1;ratioP1;P1;durP2;ratioP2;P2;SDS_P1;SDS_P2;PMS_P1;PMS_P2;Temp;Humidity;BMP_temperature;BMP_pressure;BME280_temperature;BME280_humidity;BME280_pressure;Samples;Min_cycle;Max_cycle;Signal;HPM_P1;HPM_P2
2023/06/02 00:02:22;;;;;;;5.80;1.63;;;;;;;;;;5022954;28;20041;-46
2023/06/02 00:04:51;;;;;;;6.35;1.25;;;;;;;;;;5010302;28;20068;-44
2023/06/02 00:07:19;;;;;;;7.28;1.40;;;;;;;;;;5017116;28;20048;-46
2023/06/02 00:09:47;;;;;;;6.75;1.48;;;;;;;;;;5005407;28;20048;-44
2023/06/02 00:12:17;;;;;;;5.68;1.65;;;;;;;;;;4998991;28;20037;-46
2023/06/02 00:14:48;;;;;;;5.60;1.43;;;;;;;;;;5014764;28;20045;-47
2023/06/02 00:17:18;;;;;;;6.25;1.50;;;;;;;;;;5005009;28;20047;-45
2023/06/02 00:19:47;;;;;;;6.15;1.60;;;;;;;;;;5004631;28;20041;-45
2023/06/02 00:22:17;;;;;;;6.32;1.60;;;;;;;;;;5019352;28;20381;-48
2023/06/02 00:24:45;;;;;;;7.32;1.98;;;;;;;;;;5023649;28;20033;-47
2023/06/02 00:27:13;;;;;;;8.00;1.63;;;;;;;;;;5015441;28;20365;-44
2023/06/02 00:29:41;;;;;;;5.70;1.92;;;;;;;;;;5021956;28;20116;-45
2023/06/02 00:32:09;;;;;;;6.35;1.20;;;;;;;;;;5003760;28;20037;-46
2023/06/02 00:34:36;;;;;;;5.13;1.42;;;;;;;;;;5017365;28;20499;-45
2023/06/02 00:37:05;;;;;;;7.35;1.65;;;;;;;;;;5014171;28;20128;-49
2023/06/02 00:39:38;;;;;;;6.07;1.53;;;;;;;;;;5015378;28;20149;-47
2023/06/02 00:42:08;;;;;;;8.13;1.80;;;;;;;;;;5017672;28;20087;-45
2023/06/02 00:44:35;;;;;;;6.40;1.50;;;;;;;;;;4999577;28;20063;-46
2023/06/02 00:47:03;;;;;;;6.88;1.75;;;;;;;;;;5011084;28;20091;-44
2023/06/02 00:49:31;;;;;;;6.47;1.75;;;;;;;;;;5021684;28;20403;-44
2023/06/02 00:51:59;;;;;;;5.97;1.40;;;;;;;;;;5004184;28;20648;-45
2023/06/02 00:54:27;;;;;;;7.97;1.70;;;;;;;;;;5017736;28;20050;-45
2023/06/02 00:56:57;;;;;;;6.90;2.15;;;;;;;;;;5003194;28;20715;-43
2023/06/02 00:59:25;;;;;;;7.07;2.00;;;;;;;;;;5021719;28;20045;-45
2023/06/02 01:01:53;;;;;;;7.20;2.00;;;;;;;;;;5010560;28;20464;-44
2023/06/02 01:04:21;;;;;;;6.30;2.10;;;;;;;;;;5026619;28;20433;-46
2023/06/02 01:06:51;;;;;;;6.63;1.60;;;;;;;;;;5028164;28;20040;-45
2023/06/02 01:09:19;;;;;;;5.53;1.70;;;;;;;;;;5018418;28;20048;-45
2023/06/02 01:11:47;;;;;;;5.78;1.20;;;;;;;;;;5010711;28;20056;-48
2023/06/02 01:14:16;;;;;;;4.57;1.17;;;;;;;;;;5026998;28;20053;-44
2023/06/02 01:16:49;;;;;;;5.97;1.40;;;;;;;;;;5026240;28;20047;-44
2023/06/02 01:19:20;;;;;;;5.60;1.25;;;;;;;;;;5016779;28;20148;-43
2023/06/02 01:21:57;;;;;;;6.97;2.15;;;;;;;;;;5022359;28;20071;-46
2023/06/02 01:24:31;;;;;;;5.95;1.48;;;;;;;;;;5020840;28;20746;-44
2023/06/02 01:26:59;;;;;;;7.60;1.90;;;;;;;;;;4999347;28;20049;-44
2023/06/02 01:29:27;;;;;;;6.03;1.83;;;;;;;;;;5025655;28;20037;-46
2023/06/02 01:31:57;;;;;;;7.20;1.50;;;;;;;;;;5029091;28;20052;-44
2023/06/02 01:34:28;;;;;;;5.18;1.20;;;;;;;;;;5017934;28;20882;-43
2023/06/02 01:36:58;;;;;;;6.13;1.52;;;;;;;;;;5014542;28;20045;-44
2023/06/02 01:39:27;;;;;;;6.18;1.67;;;;;;;;;;5016894;28;20033;-47
2023/06/02 01:41:57;;;;;;;4.70;1.30;;;;;;;;;;5027149;28;20438;-44
2023/06/02 01:44:26;;;;;;;6.15;1.05;;;;;;;;;;5009955;28;20137;-47
2023/06/02 01:46:57;;;;;;;4.63;1.00;;;;;;;;;;5017655;28;20068;-44
2023/06/02 01:49:24;;;;;;;3.97;0.90;;;;;;;;;;5024970;28;20400;-44
2023/06/02 01:51:54;;;;;;;4.75;1.27;;;;;;;;;;5011735;28;20037;-44
2023/06/02 01:54:22;;;;;;;5.43;0.90;;;;;;;;;;4990241;28;20060;-45
2023/06/02 01:56:49;;;;;;;5.57;1.00;;;;;;;;;;4998331;28;20124;-44
2023/06/02 01:59:20;;;;;;;4.50;0.93;;;;;;;;;;5012498;28;20048;-44
2023/06/02 02:01:48;;;;;;;5.07;0.70;;;;;;;;;;5016651;28;20344;-43
2023/06/02 02:04:15;;;;;;;5.03;1.17;;;;;;;;;;5017712;28;20471;-45
2023/06/02 02:06:45;;;;;;;5.80;0.93;;;;;;;;;;5022057;28;20033;-45
2023/06/02 02:09:13;;;;;;;4.30;1.00;;;;;;;;;;5019358;28;20029;-45
2023/06/02 02:11:41;;;;;;;6.05;1.13;;;;;;;;;;5011590;28;20041;-44
2023/06/02 02:14:08;;;;;;;4.30;1.10;;;;;;;;;;5016219;28;20128;-45
2023/06/02 02:16:37;;;;;;;5.70;1.40;;;;;;;;;;5016635;28;20056;-44
2023/06/02 02:19:07;;;;;;;5.20;1.20;;;;;;;;;;5027354;28;20053;-48
2023/06/02 02:21:35;;;;;;;5.28;1.40;;;;;;;;;;5016135;28;20045;-46
2023/06/02 02:24:03;;;;;;;5.07;1.80;;;;;;;;;;5013564;28;20091;-45
2023/06/02 02:26:31;;;;;;;6.13;1.67;;;;;;;;;;5005213;28;20604;-44
2023/06/02 02:28:59;;;;;;;9.18;2.13;;;;;;;;;;5015258;28;20033;-43
2023/06/02 02:31:27;;;;;;;7.83;1.73;;;;;;;;;;5029437;28;20037;-45
2023/06/02 02:33:56;;;;;;;6.13;1.52;;;;;;;;;;5022876;28;20087;-44
2023/06/02 02:36:24;;;;;;;7.55;1.60;;;;;;;;;;5001729;28;20040;-43
2023/06/02 02:38:52;;;;;;;7.57;1.77;;;;;;;;;;5018619;28;20052;-45
2023/06/02 02:41:20;;;;;;;5.85;1.50;;;;;;;;;;4986125;28;20376;-44
2023/06/02 02:43:48;;;;;;;5.97;1.53;;;;;;;;;;5018339;28;20045;-46
2023/06/02 02:46:15;;;;;;;4.70;1.55;;;;;;;;;;5011253;28;20051;-45
2023/06/02 02:48:43;;;;;;;6.05;1.33;;;;;;;;;;5005009;28;20271;-44
2023/06/02 02:51:13;;;;;;;5.22;1.40;;;;;;;;;;5025595;28;20128;-45
2023/06/02 02:53:41;;;;;;;5.95;1.20;;;;;;;;;;5002426;28;21164;-44
2023/06/02 02:56:09;;;;;;;5.57;1.40;;;;;;;;;;5027662;28;20041;-44
2023/06/02 02:58:37;;;;;;;9.15;1.40;;;;;;;;;;5021327;28;20037;-44
2023/06/02 03:01:05;;;;;;;5.95;1.52;;;;;;;;;;5009031;28;20260;-44
2023/06/02 03:03:33;;;;;;;7.97;1.67;;;;;;;;;;5008128;28;20060;-44
2023/06/02 03:06:02;;;;;;;7.15;2.47;;;;;;;;;;4997577;28;20520;-46
2023/06/02 03:08:33;;;;;;;9.87;1.93;;;;;;;;;;5027928;28;20051;-45
2023/06/02 03:11:01;;;;;;;7.85;1.85;;;;;;;;;;5011606;28;20236;-45
2023/06/02 03:13:29;;;;;;;6.82;1.85;;;;;;;;;;5019185;28;20247;-45
2023/06/02 03:15:56;;;;;;;6.78;2.00;;;;;;;;;;5015499;28;20048;-44
2023/06/02 03:18:24;;;;;;;7.72;2.40;;;;;;;;;;5016335;28;20041;-47
2023/06/02 03:20:54;;;;;;;8.07;2.30;;;;;;;;;;5026581;28;20536;-46
2023/06/02 03:23:22;;;;;;;6.80;2.70;;;;;;;;;;5024888;28;20033;-46
2023/06/02 03:25:51;;;;;;;6.25;2.50;;;;;;;;;;5016065;28;20045;-45
2023/06/02 03:28:19;;;;;;;11.45;2.60;;;;;;;;;;5008106;28;20041;-44
2023/06/02 03:30:47;;;;;;;8.50;2.58;;;;;;;;;;5013526;28;20045;-45
2023/06/02 03:33:14;;;;;;;8.30;2.40;;;;;;;;;;5012670;28;20033;-47
2023/06/02 03:35:43;;;;;;;7.28;2.28;;;;;;;;;;5022222;28;20107;-45
2023/06/02 03:38:12;;;;;;;7.40;2.97;;;;;;;;;;5020656;28;20033;-44
2023/06/02 03:40:41;;;;;;;7.53;2.50;;;;;;;;;;5021804;28;20152;-46
2023/06/02 03:43:11;;;;;;;5.90;2.55;;;;;;;;;;5010621;28;20048;-45
2023/06/02 03:45:38;;;;;;;6.53;2.57;;;;;;;;;;5012234;28;20687;-45
2023/06/02 03:48:06;;;;;;;8.30;2.53;;;;;;;;;;4999937;28;20556;-44
2023/06/02 03:50:38;;;;;;;6.43;2.47;;;;;;;;;;5026222;28;20037;-44
2023/06/02 03:53:06;;;;;;;6.13;2.20;;;;;;;;;;5007696;28;20033;-46
2023/06/02 03:55:34;;;;;;;6.55;2.60;;;;;;;;;;4996154;28;21228;-45
2023/06/02 03:58:02;;;;;;;7.40;2.80;;;;;;;;;;5009368;28;20049;-44
2023/06/02 04:00:31;;;;;;;7.25;2.50;;;;;;;;;;5032110;28;20491;-45
2023/06/02 04:02:59;;;;;;;5.75;2.60;;;;;;;;;;5009687;28;20886;-45
2023/06/02 04:05:27;;;;;;;9.35;3.10;;;;;;;;;;5017898;28;20197;-45
2023/06/02 04:07:56;;;;;;;8.90;2.95;;;;;;;;;;5023326;28;20881;-44
2023/06/02 04:10:24;;;;;;;11.33;2.93;;;;;;;;;;5020804;28;20037;-44
2023/06/02 04:12:51;;;;;;;8.60;2.63;;;;;;;;;;5008962;28;20402;-45
2023/06/02 04:15:19;;;;;;;10.25;2.50;;;;;;;;;;5015861;28;20603;-45
2023/06/02 04:17:48;;;;;;;8.77;2.90;;;;;;;;;;5015998;28;20041;-45
2023/06/02 04:20:20;;;;;;;7.05;2.60;;;;;;;;;;5009579;28;20033;-46
2023/06/02 04:22:48;;;;;;;8.07;3.10;;;;;;;;;;5012863;28;20055;-44
2023/06/02 04:25:16;;;;;;;9.82;3.30;;;;;;;;;;5010811;28;20041;-47
2023/06/02 04:27:43;;;;;;;9.35;2.85;;;;;;;;;;5019078;28;20499;-45
2023/06/02 04:30:11;;;;;;;9.70;2.58;;;;;;;;;;5012578;28;20044;-46
2023/06/02 04:32:39;;;;;;;9.95;2.50;;;;;;;;;;5009439;28;20478;-44
2023/06/02 04:35:09;;;;;;;10.27;2.47;;;;;;;;;;5015449;28;20051;-44
2023/06/02 04:37:37;;;;;;;8.38;2.58;;;;;;;;;;5023144;28;20043;-46
2023/06/02 04:40:06;;;;;;;7.45;2.60;;;;;;;;;;5015915;28;20053;-45
2023/06/02 04:42:34;;;;;;;10.20;3.08;;;;;;;;;;5019730;28;20453;-45
2023/06/02 04:45:03;;;;;;;10.25;2.70;;;;;;;;;;5013444;28;20045;-44
2023/06/02 04:47:31;;;;;;;8.10;2.70;;;;;;;;;;4996930;28;20041;-46
2023/06/02 04:49:59;;;;;;;7.47;3.10;;;;;;;;;;4990114;28;20507;-47
2023/06/02 04:52:28;;;;;;;10.18;3.20;;;;;;;;;;5016051;28;20033;-44
2023/06/02 04:54:56;;;;;;;12.77;3.33;;;;;;;;;;5012639;28;20476;-45
2023/06/02 04:57:23;;;;;;;12.02;2.70;;;;;;;;;;4987306;28;20045;-49
2023/06/02 04:59:51;;;;;;;12.33;3.23;;;;;;;;;;5017224;28;20033;-47
2023/06/02 05:02:19;;;;;;;10.80;2.60;;;;;;;;;;5011590;28;20037;-47
2023/06/02 05:04:48;;;;;;;9.27;3.17;;;;;;;;;;5021033;28;20056;-45
2023/06/02 05:07:16;;;;;;;9.10;2.53;;;;;;;;;;5016805;28;20044;-49
2023/06/02 05:09:45;;;;;;;9.13;2.80;;;;;;;;;;4997236;28;20036;-48
2023/06/02 05:12:15;;;;;;;9.57;3.37;;;;;;;;;;5002774;28;20045;-44
2023/06/02 05:14:44;;;;;;;8.70;2.88;;;;;;;;;;5004223;28;20569;-46
2023/06/02 05:17:12;;;;;;;8.20;3.03;;;;;;;;;;5019920;28;20037;-48
2023/06/02 05:19:42;;;;;;;8.30;2.95;;;;;;;;;;5014879;28;20557;-47
2023/06/02 05:22:10;;;;;;;7.18;3.03;;;;;;;;;;5004271;28;20049;-44
2023/06/02 05:24:38;;;;;;;9.60;2.57;;;;;;;;;;5023604;28;20049;-46
2023/06/02 05:27:08;;;;;;;8.13;2.45;;;;;;;;;;5008988;28;20045;-44
2023/06/02 05:29:36;;;;;;;9.75;2.47;;;;;;;;;;5023879;28;20498;-45
2023/06/02 05:32:04;;;;;;;6.57;2.05;;;;;;;;;;5005416;28;20305;-45
2023/06/02 05:34:32;;;;;;;11.93;3.08;;;;;;;;;;5026070;28;20080;-47
2023/06/02 05:37:01;;;;;;;8.50;2.97;;;;;;;;;;5021658;28;20669;-45
2023/06/02 05:39:30;;;;;;;8.27;2.50;;;;;;;;;;5022209;28;20079;-45
2023/06/02 05:41:58;;;;;;;11.73;2.92;;;;;;;;;;5013333;28;20059;-47
2023/06/02 05:44:27;;;;;;;7.53;3.10;;;;;;;;;;5028600;28;20049;-45
2023/06/02 05:46:54;;;;;;;11.52;2.60;;;;;;;;;;5012972;28;20047;-44
2023/06/02 05:49:23;;;;;;;13.03;2.83;;;;;;;;;;5023071;28;20119;-44
2023/06/02 05:51:50;;;;;;;8.95;2.53;;;;;;;;;;5013880;28;20052;-45
2023/06/02 05:54:18;;;;;;;10.07;2.25;;;;;;;;;;5025427;28;20037;-44
2023/06/02 05:56:46;;;;;;;9.30;2.50;;;;;;;;;;5010385;28;20045;-45
2023/06/02 05:59:14;;;;;;;9.35;2.17;;;;;;;;;;5015934;28;20138;-45
2023/06/02 06:01:45;;;;;;;9.17;2.83;;;;;;;;;;5016068;28;20044;-44
2023/06/02 06:04:13;;;;;;;8.43;2.08;;;;;;;;;;5017171;28;20057;-46
2023/06/02 06:06:41;;;;;;;8.13;2.58;;;;;;;;;;5014098;28;20065;-44
2023/06/02 06:09:08;;;;;;;20.33;3.53;;;;;;;;;;5004090;28;20049;-46
2023/06/02 06:11:37;;;;;;;10.02;2.30;;;;;;;;;;5021605;28;20044;-46
2023/06/02 06:14:07;;;;;;;11.13;2.30;;;;;;;;;;5012436;28;20453;-47
2023/06/02 06:16:35;;;;;;;10.70;2.22;;;;;;;;;;5021183;28;20044;-45
2023/06/02 06:19:04;;;;;;;11.50;2.67;;;;;;;;;;4997261;28;20049;-46
2023/06/02 06:21:32;;;;;;;7.40;2.13;;;;;;;;;;5018969;28;20044;-45
2023/06/02 06:24:00;;;;;;;8.32;2.72;;;;;;;;;;4997859;28;20506;-46
2023/06/02 06:26:27;;;;;;;12.40;2.83;;;;;;;;;;5021640;28;20043;-46
2023/06/02 06:28:55;;;;;;;12.98;2.83;;;;;;;;;;5018660;28;20037;-45
2023/06/02 06:31:23;;;;;;;12.65;3.20;;;;;;;;;;5021884;28;20048;-46
2023/06/02 06:33:51;;;;;;;7.78;2.20;;;;;;;;;;5012369;28;20499;-44
2023/06/02 06:36:20;;;;;;;9.82;2.92;;;;;;;;;;5015578;28;20037;-46
2023/06/02 06:38:47;;;;;;;22.43;3.60;;;;;;;;;;5024664;28;20491;-46
2023/06/02 06:41:15;;;;;;;12.93;2.75;;;;;;;;;;5002681;28;20434;-47
2023/06/02 06:43:43;;;;;;;8.27;2.35;;;;;;;;;;5014003;28;20049;-46
2023/06/02 06:46:11;;;;;;;13.10;2.38;;;;;;;;;;5015497;28;20045;-44
2023/06/02 06:48:39;;;;;;;11.00;2.45;;;;;;;;;;5017716;28;20063;-45
2023/06/02 06:51:07;;;;;;;10.63;2.03;;;;;;;;;;5019506;28;20060;-47
2023/06/02 06:53:41;;;;;;;14.35;2.22;;;;;;;;;;5018541;28;20049;-46
2023/06/02 06:56:09;;;;;;;9.50;2.40;;;;;;;;;;4998281;28;20064;-44
2023/06/02 06:58:37;;;;;;;14.75;2.20;;;;;;;;;;4999066;28;20545;-49
2023/06/02 07:01:05;;;;;;;7.47;2.17;;;;;;;;;;5010042;28;20405;-44
2023/06/02 07:03:33;;;;;;;10.73;2.40;;;;;;;;;;4996131;28;20045;-45
2023/06/02 07:06:01;;;;;;;11.63;2.17;;;;;;;;;;5015848;28;20390;-47
2023/06/02 07:08:29;;;;;;;11.50;1.70;;;;;;;;;;5005515;28;20044;-45
2023/06/02 07:10:59;;;;;;;9.73;2.30;;;;;;;;;;5025854;28;20124;-46
2023/06/02 07:13:27;;;;;;;8.02;2.10;;;;;;;;;;5012724;28;20595;-44
2023/06/02 07:15:54;;;;;;;9.50;2.53;;;;;;;;;;5019526;28;20037;-46
2023/06/02 07:18:22;;;;;;;12.77;2.40;;;;;;;;;;5006345;28;20086;-44
2023/06/02 07:20:50;;;;;;;9.23;2.10;;;;;;;;;;5027428;28;20136;-45
2023/06/02 07:23:17;;;;;;;12.02;2.03;;;;;;;;;;5006700;28;20141;-44
2023/06/02 07:25:46;;;;;;;11.35;2.58;;;;;;;;;;5014542;28;20052;-45
2023/06/02 07:28:15;;;;;;;11.40;2.20;;;;;;;;;;5012162;28;20040;-44
2023/06/02 07:31:02;;;;;;;11.77;2.55;;;;;;;;;;5005277;28;20052;-44
2023/06/02 07:33:37;;;;;;;8.57;3.00;;;;;;;;;;5020546;28;20037;-47
2023/06/02 07:36:05;;;;;;;11.55;2.40;;;;;;;;;;5013058;28;20041;-45
2023/06/02 07:38:33;;;;;;;10.57;2.10;;;;;;;;;;5011352;28;20108;-46
2023/06/02 07:41:02;;;;;;;12.30;2.40;;;;;;;;;;5011188;28;20460;-45
2023/06/02 07:43:31;;;;;;;10.40;2.80;;;;;;;;;;5013154;28;20554;-45
2023/06/02 07:45:59;;;;;;;11.30;2.92;;;;;;;;;;5024276;28;20055;-45
2023/06/02 07:48:27;;;;;;;9.07;2.70;;;;;;;;;;5011664;28;20044;-46
2023/06/02 07:50:55;;;;;;;12.68;3.17;;;;;;;;;;5010443;28;20259;-45
2023/06/02 07:53:22;;;;;;;6.83;2.13;;;;;;;;;;5021086;28;20516;-46
2023/06/02 07:55:50;;;;;;;6.80;2.53;;;;;;;;;;5000837;28;20556;-46
2023/06/02 07:58:18;;;;;;;10.23;2.95;;;;;;;;;;5027375;28;20355;-44
2023/06/02 08:00:47;;;;;;;10.15;2.83;;;;;;;;;;5011200;28;20044;-48
2023/06/02 08:03:15;;;;;;;11.85;2.50;;;;;;;;;;5023468;28;20346;-44
2023/06/02 08:05:44;;;;;;;12.13;2.00;;;;;;;;;;5015098;28;20132;-45
2023/06/02 08:08:12;;;;;;;10.13;2.03;;;;;;;;;;5004448;28;20056;-44
2023/06/02 08:10:40;;;;;;;7.53;1.90;;;;;;;;;;5017062;28;20041;-46
2023/06/02 08:13:08;;;;;;;10.50;2.63;;;;;;;;;;5009466;28;20045;-46
2023/06/02 08:15:38;;;;;;;8.38;2.50;;;;;;;;;;5023473;28;20045;-46
2023/06/02 08:18:14;;;;;;;10.67;2.00;;;;;;;;;;5019994;28;20150;-45
2023/06/02 08:20:45;;;;;;;11.30;2.28;;;;;;;;;;5012191;28;20139;-47
2023/06/02 08:23:13;;;;;;;10.13;2.28;;;;;;;;;;5013814;28;20033;-44
2023/06/02 08:25:41;;;;;;;9.23;1.80;;;;;;;;;;5019770;28;20045;-47
2023/06/02 08:28:09;;;;;;;8.85;1.95;;;;;;;;;;5001703;28;20115;-45
2023/06/02 08:30:37;;;;;;;10.17;2.57;;;;;;;;;;4987432;28;20045;-45
2023/06/02 08:33:08;;;;;;;7.38;2.25;;;;;;;;;;4978837;28;20495;-46
2023/06/02 08:35:37;;;;;;;10.27;2.33;;;;;;;;;;5007587;28;20060;-47
2023/06/02 08:38:08;;;;;;;7.53;2.20;;;;;;;;;;5012555;28;20606;-46
2023/06/02 08:40:40;;;;;;;7.32;2.60;;;;;;;;;;5019016;28;20064;-48
2023/06/02 08:43:12;;;;;;;10.43;2.30;;;;;;;;;;5008904;28;20041;-46
2023/06/02 08:45:42;;;;;;;8.82;2.50;;;;;;;;;;5020922;28;20048;-47
2023/06/02 08:48:15;;;;;;;10.45;2.47;;;;;;;;;;5014573;28;20043;-45
2023/06/02 08:50:46;;;;;;;13.43;3.03;;;;;;;;;;5017166;28;20037;-47
2023/06/02 08:53:16;;;;;;;7.78;3.22;;;;;;;;;;4999195;28;21450;-45
2023/06/02 08:55:44;;;;;;;9.63;3.27;;;;;;;;;;5008427;28;20086;-47
2023/06/02 08:58:12;;;;;;;8.00;2.95;;;;;;;;;;5011347;28;20037;-46
2023/06/02 09:00:40;;;;;;;12.07;3.83;;;;;;;;;;5025058;28;20049;-46
2023/06/02 09:03:08;;;;;;;11.20;2.83;;;;;;;;;;5012222;28;20047;-45
2023/06/02 09:05:40;;;;;;;8.52;3.05;;;;;;;;;;5006977;28;20116;-46
2023/06/02 09:08:09;;;;;;;9.83;3.10;;;;;;;;;;5022749;28;20041;-46
2023/06/02 09:10:40;;;;;;;10.32;3.85;;;;;;;;;;4997069;28;20508;-45
2023/06/02 09:13:09;;;;;;;9.95;2.75;;;;;;;;;;5023708;28;20041;-47
2023/06/02 09:15:37;;;;;;;9.52;2.42;;;;;;;;;;4995624;28;20041;-47
2023/06/02 09:18:15;;;;;;;11.50;2.78;;;;;;;;;;5013320;28;20037;-46
2023/06/02 09:20:47;;;;;;;11.40;2.40;;;;;;;;;;5011379;28;20197;-44
2023/06/02 09:23:16;;;;;;;9.10;2.10;;;;;;;;;;5015895;28;20487;-47
2023/06/02 09:25:45;;;;;;;9.13;1.95;;;;;;;;;;5017736;28;20144;-46
2023/06/02 09:28:13;;;;;;;9.07;2.20;;;;;;;;;;5017349;28;20501;-44
2023/06/02 09:30:41;;;;;;;7.95;2.58;;;;;;;;;;5024553;28;20399;-45
2023/06/02 09:33:11;;;;;;;7.53;2.80;;;;;;;;;;5012538;28;20497;-46
2023/06/02 09:35:41;;;;;;;9.75;2.60;;;;;;;;;;5019248;28;20033;-46
2023/06/02 09:38:12;;;;;;;11.00;2.78;;;;;;;;;;5024649;28;20041;-45
2023/06/02 09:40:41;;;;;;;7.95;2.00;;;;;;;;;;5007618;28;20050;-48
2023/06/02 09:43:10;;;;;;;11.93;2.50;;;;;;;;;;5003239;28;20047;-46
2023/06/02 09:45:53;;;;;;;8.77;2.17;;;;;;;;;;5012855;28;20041;-45
2023/06/02 09:48:22;;;;;;;24.35;4.25;;;;;;;;;;5024616;28;20127;-45
2023/06/02 09:50:51;;;;;;;10.43;2.15;;;;;;;;;;5027780;28;20037;-45
2023/06/02 09:53:19;;;;;;;9.05;2.20;;;;;;;;;;5032933;28;20041;-45
2023/06/02 09:55:48;;;;;;;7.43;2.20;;;;;;;;;;5011008;28;20055;-47
2023/06/02 09:58:17;;;;;;;8.47;2.53;;;;;;;;;;5016585;28;20041;-45
2023/06/02 10:00:45;;;;;;;11.07;2.20;;;;;;;;;;5000297;28;20033;-46
2023/06/02 10:03:13;;;;;;;9.10;2.20;;;;;;;;;;5022849;28;20055;-46
2023/06/02 10:05:46;;;;;;;8.25;2.35;;;;;;;;;;5027534;28;20052;-45
2023/06/02 10:08:18;;;;;;;8.02;3.05;;;;;;;;;;5018793;28;20052;-44
2023/06/02 10:10:53;;;;;;;12.50;3.07;;;;;;;;;;5022678;28;20522;-44
2023/06/02 10:13:38;;;;;;;8.63;2.45;;;;;;;;;;5022008;28;20045;-46
2023/06/02 10:16:22;;;;;;;12.18;2.50;;;;;;;;;;5016838;28;20044;-49
2023/06/02 10:19:05;;;;;;;10.50;2.53;;;;;;;;;;5026393;28;20454;-46
2023/06/02 10:21:38;;;;;;;8.60;2.20;;;;;;;;;;5009669;28;20060;-46
2023/06/02 10:24:11;;;;;;;8.73;2.50;;;;;;;;;;5019179;28;20041;-50
2023/06/02 10:26:49;;;;;;;12.55;2.30;;;;;;;;;;5016233;28;20622;-49
2023/06/02 10:29:17;;;;;;;10.55;2.40;;;;;;;;;;5015333;28;20063;-47
2023/06/02 10:31:45;;;;;;;9.77;2.72;;;;;;;;;;5016374;28;20915;-44
2023/06/02 10:34:27;;;;;;;10.63;2.88;;;;;;;;;;5024597;28;20075;-46
2023/06/02 10:37:16;;;;;;;11.60;2.90;;;;;;;;;;5015470;28;20043;-46
2023/06/02 10:39:48;;;;;;;9.40;2.78;;;;;;;;;;5020005;28;20074;-46
2023/06/02 10:42:18;;;;;;;10.98;2.30;;;;;;;;;;5024875;28;20094;-47
2023/06/02 10:44:51;;;;;;;6.18;2.10;;;;;;;;;;5016714;28;20049;-47
2023/06/02 10:47:37;;;;;;;11.20;2.35;;;;;;;;;;5004292;28;20803;-46
2023/06/02 10:50:07;;;;;;;12.57;2.00;;;;;;;;;;5019320;28;20067;-46
2023/06/02 10:52:59;;;;;;;9.50;2.38;;;;;;;;;;5010288;28;20395;-47
2023/06/02 10:55:30;;;;;;;8.52;1.90;;;;;;;;;;5020926;28;20055;-50
2023/06/02 10:58:01;;;;;;;9.65;1.92;;;;;;;;;;5014675;28;20040;-47
2023/06/02 11:00:56;;;;;;;9.05;2.67;;;;;;;;;;5014505;28;20041;-49
2023/06/02 11:03:34;;;;;;;10.00;2.47;;;;;;;;;;4981773;28;20044;-46
2023/06/02 11:06:24;;;;;;;10.27;2.63;;;;;;;;;;5008071;28;20057;-47
2023/06/02 11:08:53;;;;;;;9.85;2.90;;;;;;;;;;5013825;28;20361;-46
2023/06/02 11:11:39;;;;;;;9.18;2.70;;;;;;;;;;5029112;28;20090;-47
2023/06/02 11:14:09;;;;;;;8.05;2.40;;;;;;;;;;5014338;28;20037;-46
2023/06/02 11:16:36;;;;;;;9.80;2.60;;;;;;;;;;5021984;28;20048;-45
2023/06/02 11:19:04;;;;;;;8.23;2.65;;;;;;;;;;5012862;28;20053;-48
2023/06/02 11:21:33;;;;;;;8.80;1.75;;;;;;;;;;5019540;28;20133;-49
2023/06/02 11:24:00;;;;;;;10.07;2.42;;;;;;;;;;5020513;28;20470;-46
2023/06/02 11:26:28;;;;;;;12.18;2.30;;;;;;;;;;5007596;28;20444;-47
2023/06/02 11:28:56;;;;;;;8.93;2.07;;;;;;;;;;5014042;28;20041;-44
2023/06/02 11:31:25;;;;;;;12.25;3.10;;;;;;;;;;5013013;28;20813;-47
2023/06/02 11:33:54;;;;;;;10.77;2.20;;;;;;;;;;5020319;28;20130;-48
2023/06/02 11:36:26;;;;;;;9.93;2.78;;;;;;;;;;5016081;28;20063;-44
2023/06/02 11:39:01;;;;;;;9.63;2.42;;;;;;;;;;5020732;28;20626;-48
2023/06/02 11:41:31;;;;;;;11.20;2.97;;;;;;;;;;4990162;28;20095;-45
2023/06/02 11:44:03;;;;;;;11.30;2.88;;;;;;;;;;5013920;28;20066;-47
2023/06/02 11:46:32;;;;;;;15.45;2.25;;;;;;;;;;5003242;28;20510;-45
2023/06/02 11:49:00;;;;;;;10.75;2.30;;;;;;;;;;5020133;28;20338;-48
2023/06/02 11:51:28;;;;;;;12.10;2.60;;;;;;;;;;5021996;28;20500;-47
2023/06/02 11:54:00;;;;;;;8.20;2.43;;;;;;;;;;4990030;28;20105;-45
2023/06/02 11:56:28;;;;;;;9.45;2.25;;;;;;;;;;5011694;28;20161;-48
2023/06/02 11:58:56;;;;;;;10.32;2.45;;;;;;;;;;5007975;28;20499;-46
2023/06/02 12:01:25;;;;;;;8.27;2.40;;;;;;;;;;5001310;28;20037;-47
2023/06/02 12:04:04;;;;;;;9.73;1.92;;;;;;;;;;5016527;28;20037;-44
2023/06/02 12:06:33;;;;;;;6.53;1.90;;;;;;;;;;5018987;28;20044;-46
2023/06/02 12:09:09;;;;;;;8.82;2.40;;;;;;;;;;5011988;28;20155;-50
2023/06/02 12:11:38;;;;;;;9.77;2.90;;;;;;;;;;5003616;28;20519;-49
2023/06/02 12:14:07;;;;;;;7.43;1.83;;;;;;;;;;5008168;28;20046;-47
2023/06/02 12:16:37;;;;;;;9.68;2.40;;;;;;;;;;5014918;28;20049;-47
2023/06/02 12:19:13;;;;;;;8.07;2.77;;;;;;;;;;5012707;28;20041;-46
2023/06/02 12:21:41;;;;;;;8.60;2.88;;;;;;;;;;5013449;28;20137;-46
2023/06/02 12:24:10;;;;;;;8.55;1.98;;;;;;;;;;5022910;28;20048;-45
2023/06/02 12:26:42;;;;;;;7.43;2.60;;;;;;;;;;5000075;28;20484;-48
2023/06/02 12:29:10;;;;;;;8.57;2.35;;;;;;;;;;5022881;28;20045;-47
2023/06/02 12:31:38;;;;;;;9.40;2.57;;;;;;;;;;5000189;28;20044;-46
2023/06/02 12:34:07;;;;;;;10.38;3.00;;;;;;;;;;5006846;28;20051;-46
2023/06/02 12:36:37;;;;;;;9.60;2.50;;;;;;;;;;4997430;28;20630;-46
2023/06/02 12:39:05;;;;;;;11.25;2.83;;;;;;;;;;5013127;28;20046;-45
2023/06/02 12:41:33;;;;;;;7.28;2.40;;;;;;;;;;5023657;28;20041;-45
2023/06/02 12:44:00;;;;;;;12.43;2.80;;;;;;;;;;5011729;28;20446;-48
2023/06/02 12:46:30;;;;;;;8.35;2.78;;;;;;;;;;4999763;28;20061;-45
2023/06/02 12:48:59;;;;;;;8.85;3.20;;;;;;;;;;5010194;28;20053;-46
2023/06/02 12:51:27;;;;;;;9.40;2.53;;;;;;;;;;5005856;28;20141;-48
2023/06/02 12:53:56;;;;;;;12.57;3.00;;;;;;;;;;5000795;28;20567;-45
2023/06/02 12:56:25;;;;;;;14.70;3.63;;;;;;;;;;5001472;28;20103;-48
2023/06/02 12:58:53;;;;;;;10.48;2.85;;;;;;;;;;4995610;28;20044;-46
2023/06/02 13:01:22;;;;;;;11.63;2.80;;;;;;;;;;4991765;28;20037;-46
2023/06/02 13:03:52;;;;;;;13.07;3.10;;;;;;;;;;5008690;28;20067;-45
2023/06/02 13:06:20;;;;;;;11.30;3.10;;;;;;;;;;4987923;28;20037;-45
2023/06/02 13:08:48;;;;;;;9.97;3.47;;;;;;;;;;4978635;28;20824;-46
2023/06/02 13:11:17;;;;;;;12.55;3.35;;;;;;;;;;4984127;28;20103;-45
2023/06/02 13:13:45;;;;;;;10.02;2.70;;;;;;;;;;4981567;28;20042;-45
2023/06/02 13:16:13;;;;;;;12.48;3.38;;;;;;;;;;4991314;28;20061;-47
2023/06/02 13:18:42;;;;;;;12.23;3.50;;;;;;;;;;4973513;28;20049;-45
2023/06/02 13:21:09;;;;;;;10.30;3.10;;;;;;;;;;4985226;28;20566;-45
2023/06/02 13:23:38;;;;;;;15.50;3.30;;;;;;;;;;4983768;28;20604;-48
2023/06/02 13:26:06;;;;;;;10.80;3.08;;;;;;;;;;4965854;28;20507;-51
2023/06/02 13:28:36;;;;;;;10.18;3.42;;;;;;;;;;4953160;28;20499;-45
2023/06/02 13:31:04;;;;;;;10.13;2.70;;;;;;;;;;4972621;28;20350;-47
2023/06/02 13:33:33;;;;;;;11.20;2.73;;;;;;;;;;4984341;28;20573;-49
2023/06/02 13:36:01;;;;;;;9.80;2.53;;;;;;;;;;4976783;28;20164;-48
2023/06/02 13:38:29;;;;;;;9.73;2.50;;;;;;;;;;4974640;28;20395;-50
2023/06/02 13:40:58;;;;;;;14.30;3.28;;;;;;;;;;4985156;28;20037;-46
2023/06/02 13:43:26;;;;;;;13.25;3.75;;;;;;;;;;4974464;28;20049;-50
2023/06/02 13:45:55;;;;;;;11.47;2.43;;;;;;;;;;4987783;28;20200;-48
2023/06/02 13:48:23;;;;;;;16.25;3.05;;;;;;;;;;4953112;28;20793;-48
2023/06/02 13:50:51;;;;;;;11.98;3.10;;;;;;;;;;4975326;28;20049;-48
2023/06/02 13:53:19;;;;;;;10.40;2.35;;;;;;;;;;4991043;28;20037;-48
2023/06/02 13:55:46;;;;;;;12.75;2.95;;;;;;;;;;4982979;28;20045;-49
2023/06/02 13:58:14;;;;;;;7.50;3.20;;;;;;;;;;4990589;28;20130;-49
2023/06/02 14:00:42;;;;;;;7.43;2.90;;;;;;;;;;4977004;28;20063;-50
2023/06/02 14:03:11;;;;;;;11.27;2.83;;;;;;;;;;4968657;28;20053;-46
2023/06/02 14:05:40;;;;;;;8.27;2.55;;;;;;;;;;4974348;28;20663;-50
2023/06/02 14:08:13;;;;;;;10.13;2.65;;;;;;;;;;4994320;28;20036;-48
2023/06/02 14:10:43;;;;;;;11.23;2.27;;;;;;;;;;4988009;28;20045;-47
2023/06/02 14:13:11;;;;;;;21.85;3.10;;;;;;;;;;4976973;28;20850;-48
2023/06/02 14:15:39;;;;;;;10.88;3.10;;;;;;;;;;4973100;28;20756;-47
2023/06/02 14:18:08;;;;;;;12.30;2.53;;;;;;;;;;4995071;28;20233;-49
2023/06/02 14:20:37;;;;;;;12.45;3.30;;;;;;;;;;4969060;28;20531;-47
2023/06/02 14:23:05;;;;;;;9.60;2.93;;;;;;;;;;4991893;28;20041;-50
2023/06/02 14:25:33;;;;;;;9.57;3.05;;;;;;;;;;4982966;28;20084;-49
2023/06/02 14:28:01;;;;;;;15.52;3.03;;;;;;;;;;4994497;28;20103;-48
2023/06/02 14:30:29;;;;;;;10.82;2.97;;;;;;;;;;4965584;28;20096;-47
2023/06/02 14:32:57;;;;;;;10.90;2.97;;;;;;;;;;4993495;28;20057;-47
2023/06/02 14:35:25;;;;;;;10.03;2.90;;;;;;;;;;4954789;28;20247;-51
2023/06/02 14:37:54;;;;;;;10.90;2.50;;;;;;;;;;4989872;28;20095;-44
2023/06/02 14:40:26;;;;;;;7.82;2.45;;;;;;;;;;4987829;28;20590;-49
2023/06/02 14:42:53;;;;;;;12.30;2.78;;;;;;;;;;4979697;28;20156;-48
2023/06/02 14:45:21;;;;;;;8.60;2.67;;;;;;;;;;4986975;28;20050;-46
2023/06/02 14:47:49;;;;;;;11.17;2.47;;;;;;;;;;4987445;28;20443;-48
2023/06/02 14:50:17;;;;;;;8.70;2.60;;;;;;;;;;4982152;28;20046;-44
2023/06/02 14:52:46;;;;;;;11.15;2.40;;;;;;;;;;4967217;28;20056;-46